Hauptseite
METAR-TAF:

METAR-TAF

Flughäfen :

Cherbourg, Frankreich

Flughafen Cherbourg-Maupertus

Breite: 49-39N, Länge: 001-28W, Höhe: 138 m

Beobachtung

Neuester Wetterbericht von vor 23 Minuten, um 05:30 UTC
Wind 9 kt aus West
Temperatur 7°C
Luftfeuchtigkeit 87%
Luftdruck 1019 hPa
Sichtweite 10 km oder mehr
Leicht bewölkt in der Höhe von 1800 ft

METAR: LFRC 260530Z AUTO 26009KT 9999 FEW018 07/05 Q1019 NOSIG

Zeit: 07:53 (05:53 UTC)

Prognose

Neuester Wetterbericht von vor 53 Minuten, um 05:00 UTC
Gültige Prognose vom 26 um 06 UTC bis 26 um 15 UTC
Wind 10 kt aus West
Sichtweite 10 km oder mehr
Aufgelockert bewölkt in der Höhe von 2000 ft

TAF: LFRC 260500Z 2606/2615 27010KT 9999 SCT020

Wetterbeobachtungen und Prognosen von mehr als 4000 Flughäfen (METAR und TAF Bericht).

Die verfügbaren Stationen werden durch gelbe und rote Markierungen auf der Karte dargestellt.

Führen Sie die Maus auf sie, um den Namen der Station zu sehen.

Darauf klicken, um die Beobachtung von Wetterbeobachtungen und Prognosen zu sehen.

Um die Karte zu ändern : klicken Sie auf den grünen Tasten mit einem schwarzen Kreuz Zum Vergrößern, auf den grünen Button mit einem Gedankenstrich zu verkleinern, oder auf die grünen Pfeile für benachbarte Karten.


METAR-TAF: